This is the latest recevied weather packets stored in our database for station/object OM2RC-6. If no packets are shown the sender has not sent any weather packets the latest 10 day(s).
| Time | Temp. | Humidity | Pressure | Rain* | Wind** | Luminosity | Snow |
|---|---|---|---|---|---|---|---|
| 1778234798 | 17.78° C | 71% | 1018.2 hPa | - | - | - | - |
| 1778234497 | 17.78° C | 69% | 1018.2 hPa | - | - | - | - |
| 1778233894 | 17.78° C | 67% | 1018.5 hPa | - | - | - | - |
| 1778233593 | 20° C | 61% | 1018.4 hPa | - | - | - | - |
| 1778233292 | 18.89° C | 60% | 1018.3 hPa | - | - | - | - |
| 1778232990 | 17.22° C | 68% | 1018.5 hPa | - | - | - | - |
| 1778232688 | 17.78° C | 67% | 1018.4 hPa | - | - | - | - |
| 1778232387 | 20.56° C | 60% | 1018.3 hPa | - | - | - | - |
| 1778232086 | 18.89° C | 62% | 1018.3 hPa | - | - | - | - |
| 1778231785 | 19.44° C | 62% | 1018.3 hPa | - | - | - | - |
| 1778231182 | 19.44° C | 68% | 1018.3 hPa | - | - | - | - |
| 1778230879 | 17.78° C | 73% | 1018.4 hPa | - | - | - | - |
| 1778230579 | 20° C | 64% | 1018.2 hPa | - | - | - | - |
| 1778230277 | 18.33° C | 75% | 1018.4 hPa | - | - | - | - |
| 1778229975 | 18.33° C | 75% | 1018.4 hPa | - | - | - | - |
| 1778229673 | 17.78° C | 77% | 1018.4 hPa | - | - | - | - |
| 1778229369 | 17.78° C | 79% | 1018.4 hPa | - | - | - | - |
| 1778229067 | 17.22° C | 86% | 1018.4 hPa | - | - | - | - |
| 1778228765 | 16.67° C | 87% | 1018.3 hPa | - | - | - | - |
| 1778228162 | 17.22° C | 89% | 1018.3 hPa | - | - | - | - |
| 1778227862 | 17.22° C | 89% | 1018.3 hPa | - | - | - | - |
| 1778227561 | 17.78° C | 87% | 1018.3 hPa | - | - | - | - |
| 1778227259 | 16.67° C | 88% | 1018.3 hPa | - | - | - | - |
| 1778226957 | 17.22° C | 88% | 1018.3 hPa | - | - | - | - |
| 1778226656 | 16.67° C | 94% | 1018.4 hPa | - | - | - | - |
* Rain since midnight (hover to see other rain measurements)
** Current wind speed in m/s (hover to see current wind gust speed)